createdAt,value
2017-12-22T07:21:14.180Z,-26.6874
2017-12-22T07:22:19.658Z,-25.8577
2017-12-22T07:23:25.156Z,-26.1061
2017-12-22T07:24:31.121Z,-25.8577
2017-12-22T07:25:36.607Z,-26.3545
2017-12-22T07:26:42.105Z,-26.772
2017-12-22T07:27:47.656Z,-25.8577
2017-12-22T07:28:53.151Z,-27.2687
2017-12-22T07:29:58.355Z,-27.0204
2017-12-22T07:31:04.017Z,-26.8565
2017-12-22T07:32:09.480Z,-27.5171
2017-12-22T07:33:15.023Z,-27.6017
2017-12-22T07:34:20.495Z,-28.0984
2017-12-22T07:35:25.980Z,-28.0139
2017-12-22T07:36:31.820Z,-28.2622
2017-12-22T07:37:37.232Z,-28.5159
2017-12-22T07:38:42.753Z,-28.5159
2017-12-22T07:39:48.656Z,-28.0139
2017-12-22T07:40:53.837Z,-27.2687
2017-12-22T07:41:59.326Z,-28.5159
2017-12-22T07:43:04.795Z,-27.3533
2017-12-22T07:44:10.011Z,-27.6017
2017-12-22T07:45:15.510Z,-27.3533
2017-12-22T07:46:21.284Z,-26.8565
2017-12-22T07:47:26.494Z,-27.3533
2017-12-22T07:48:32.449Z,-27.1842
2017-12-22T07:49:37.941Z,-26.6874
2017-12-22T07:50:43.413Z,-26.1907
2017-12-22T07:51:48.895Z,-26.9358
2017-12-22T07:52:54.354Z,-26.2699
2017-12-22T07:53:59.837Z,-26.2699
2017-12-22T07:55:05.356Z,-27.9346
2017-12-22T07:56:10.212Z,-26.772
2017-12-22T07:57:15.702Z,-27.0204
2017-12-22T07:58:21.422Z,-27.7655
2017-12-22T07:59:26.611Z,-27.0204
2017-12-22T08:00:32.354Z,-28.5159
2017-12-22T08:01:37.294Z,-28.5159
2017-12-22T08:02:42.779Z,-28.7643
2017-12-22T08:03:48.534Z,-28.0139
2017-12-22T08:04:54.021Z,-29.261
2017-12-22T08:05:59.505Z,-29.6785
2017-12-22T08:07:04.394Z,-28.2622
2017-12-22T08:08:09.611Z,-29.261
2017-12-22T08:09:15.094Z,-28.2622
2017-12-22T08:10:20.564Z,-29.0127
2017-12-22T08:11:25.776Z,-29.6785
2017-12-22T08:12:30.984Z,-30.4237
2017-12-22T08:13:36.232Z,-29.6785
2017-12-22T08:14:41.700Z,-30.1753
2017-12-22T08:15:47.131Z,-30.1753
2017-12-22T08:16:52.318Z,-31.4172
2017-12-22T08:17:57.799Z,-31.1688
2017-12-22T08:19:03.594Z,-31.1688
2017-12-22T08:20:09.063Z,-30.672
2017-12-22T08:21:14.234Z,-30.7566
2017-12-22T08:22:19.985Z,-30.5082
2017-12-22T08:23:25.663Z,-31.4172
2017-12-22T08:24:31.558Z,-31.1688
2017-12-22T08:25:37.067Z,-31.2534
2017-12-22T08:26:42.473Z,-31.2534
2017-12-22T08:27:48.238Z,-30.5082
2017-12-22T08:28:53.718Z,-31.5017
2017-12-22T08:29:59.203Z,-30.5082
2017-12-22T08:31:04.934Z,-30.5082
2017-12-22T08:32:10.416Z,-31.2534
2017-12-22T08:33:15.618Z,-31.5017
2017-12-22T08:34:21.174Z,-31.5017
2017-12-22T08:35:26.711Z,-31.7501
2017-12-22T08:36:32.451Z,-31.4172
2017-12-22T08:37:37.357Z,-32.416
2017-12-22T08:38:42.852Z,-32.1676
2017-12-22T08:39:48.100Z,-32.2469
2017-12-22T08:40:53.730Z,-31.9985
2017-12-22T08:41:58.928Z,-32.5005
2017-12-22T08:43:04.678Z,-32.2469
2017-12-22T08:44:09.882Z,-32.2469
2017-12-22T08:45:15.351Z,-32.6643
2017-12-22T08:46:21.152Z,-32.7489
2017-12-22T08:47:26.621Z,-32.2469
2017-12-22T08:48:31.881Z,-32.7489
2017-12-22T08:49:36.839Z,-31.5017
2017-12-22T08:50:42.331Z,-32.7489
2017-12-22T08:51:48.303Z,-32.5005
2017-12-22T08:52:53.785Z,-32.7489
2017-12-22T08:53:59.359Z,-32.7489
2017-12-22T08:55:04.945Z,-32.7489
2017-12-22T08:56:09.883Z,-32.9973
2017-12-22T08:57:15.369Z,-32.9973
2017-12-22T08:58:21.089Z,-32.9973
2017-12-22T08:59:26.296Z,-33.4095
2017-12-22T09:00:32.224Z,-33.9062
2017-12-22T09:01:37.717Z,-34.1546
2017-12-22T09:02:43.221Z,-34.4083
2017-12-22T09:03:48.940Z,-33.6579
2017-12-22T09:04:54.129Z,-33.9062
2017-12-22T09:05:59.612Z,-34.4083
2017-12-22T09:07:05.086Z,-34.4083
2017-12-22T09:08:10.576Z,-34.4875
2017-12-22T09:09:16.077Z,-34.9896
2017-12-22T09:10:21.930Z,-35.4018
2017-12-22T09:11:26.834Z,-35.238
2017-12-22T09:12:32.643Z,-34.2445
2017-12-22T09:13:37.854Z,-34.4875
2017-12-22T09:14:43.045Z,-33.7424
2017-12-22T09:15:48.506Z,-34.2445
2017-12-22T09:16:53.434Z,-35.238
2017-12-22T09:17:58.660Z,-35.3172
2017-12-22T09:19:04.377Z,-35.4863
2017-12-22T09:20:09.848Z,-35.238
2017-12-22T09:21:15.090Z,-36.4006
2017-12-22T09:22:20.735Z,-36.1469
2017-12-22T09:23:25.937Z,-36.649
2017-12-22T09:24:31.401Z,-36.4006
2017-12-22T09:25:36.693Z,-35.4863
2017-12-22T09:26:42.222Z,-35.6502
2017-12-22T09:27:47.998Z,-35.8985
2017-12-22T09:28:53.211Z,-36.1469
2017-12-22T09:29:58.695Z,-35.8985
2017-12-22T09:31:04.388Z,-36.8973
2017-12-22T09:32:09.897Z,-36.649
2017-12-22T09:33:15.391Z,-35.7347
2017-12-22T09:34:20.571Z,-36.2315
2017-12-22T09:35:25.533Z,-35.9831
2017-12-22T09:36:31.307Z,-35.9831
2017-12-22T09:37:36.514Z,-35.238
2017-12-22T09:38:41.990Z,-35.4863
2017-12-22T09:39:47.157Z,-34.9896
2017-12-22T09:40:52.660Z,-35.7347
2017-12-22T09:41:58.139Z,-34.7412
2017-12-22T09:43:03.631Z,-35.8985
2017-12-22T09:44:08.819Z,-35.4018
2017-12-22T09:45:14.305Z,-34.7412
2017-12-22T09:46:19.852Z,-35.6502
2017-12-22T09:47:25.079Z,-34.9896
2017-12-22T09:48:30.638Z,-36.1469
2017-12-22T09:49:35.839Z,-36.1469
2017-12-22T09:50:41.027Z,-35.9831
2017-12-22T09:51:45.670Z,-35.8985
2017-12-22T09:52:51.150Z,-36.1469
2017-12-22T09:53:56.664Z,-36.649
2017-12-22T09:55:01.596Z,-36.8973
2017-12-22T09:56:06.196Z,-36.8128
2017-12-22T09:57:11.111Z,-37.0612
2017-12-22T09:58:16.701Z,-37.0612
2017-12-22T09:59:22.189Z,-36.316
2017-12-22T10:00:27.911Z,-36.5644
2017-12-22T10:01:33.118Z,-37.0612
2017-12-22T10:02:38.684Z,-36.9766
2017-12-22T10:03:44.159Z,-37.9754
2017-12-22T10:04:49.568Z,-36.8128
2017-12-22T10:05:55.463Z,-36.8128
2017-12-22T10:07:00.709Z,-36.8128
2017-12-22T10:08:06.287Z,-36.8128
2017-12-22T10:09:12.394Z,-36.316
2017-12-22T10:10:17.875Z,-36.5644
2017-12-22T10:11:23.370Z,-37.225
2017-12-22T10:12:29.007Z,-36.7282
2017-12-22T10:13:34.199Z,-36.316
2017-12-22T10:14:39.595Z,-36.0677
2017-12-22T10:15:45.064Z,-36.316
2017-12-22T10:16:50.532Z,-36.5644
2017-12-22T10:17:56.023Z,-35.3172
2017-12-22T10:19:01.507Z,-36.5644
2017-12-22T10:20:06.445Z,-36.316
2017-12-22T10:21:11.645Z,-35.5656
2017-12-22T10:22:17.112Z,-35.9831
2017-12-22T10:23:22.584Z,-34.8205
2017-12-22T10:24:28.595Z,-35.0689
2017-12-22T10:25:34.072Z,-35.0689
2017-12-22T10:26:39.549Z,-34.3237
2017-12-22T10:27:44.828Z,-34.7412
2017-12-22T10:28:50.344Z,-34.3237
2017-12-22T10:29:55.836Z,-34.0753
2017-12-22T10:31:01.351Z,-34.3237
2017-12-22T10:32:07.016Z,-34.0753
2017-12-22T10:33:12.114Z,-33.9062
2017-12-22T10:34:17.376Z,-34.8205
2017-12-22T10:35:22.614Z,-35.0689
2017-12-22T10:36:28.561Z,-35.3172
2017-12-22T10:37:34.200Z,-36.0677
2017-12-22T10:38:39.398Z,-36.316
2017-12-22T10:39:45.320Z,-35.3172
2017-12-22T10:40:50.911Z,-34.905
2017-12-22T10:41:56.281Z,-35.0689
2017-12-22T10:43:01.780Z,-36.0677
2017-12-22T10:44:06.691Z,-36.1469
2017-12-22T10:45:12.180Z,-36.4006
2017-12-22T10:46:17.916Z,-36.649
2017-12-22T10:47:23.455Z,-35.8985
2017-12-22T10:48:29.363Z,-36.1469
2017-12-22T10:49:34.569Z,-35.4018
2017-12-22T10:50:39.499Z,-35.8985
2017-12-22T10:51:44.944Z,-36.1469
2017-12-22T10:52:50.450Z,-36.1469
2017-12-22T10:53:55.651Z,-36.649
2017-12-22T10:55:01.409Z,-36.8973
2017-12-22T10:56:06.899Z,-36.8973
2017-12-22T10:57:12.386Z,-35.9831
2017-12-22T10:58:18.139Z,-36.2315
2017-12-22T10:59:23.624Z,-37.1457
2017-12-22T11:00:29.547Z,-35.9831
2017-12-22T11:01:34.775Z,-35.8985
2017-12-22T11:02:39.718Z,-34.7412
2017-12-22T11:03:45.165Z,-34.7412
2017-12-22T11:04:50.653Z,-34.7412
2017-12-22T11:05:56.153Z,-34.9896
2017-12-22T11:07:01.579Z,-34.7412
2017-12-22T11:08:07.248Z,-34.7412
2017-12-22T11:09:12.441Z,-34.4875
2017-12-22T11:10:18.252Z,-33.9908
2017-12-22T11:11:23.453Z,-33.9908
2017-12-22T11:12:29.060Z,-33.9908
2017-12-22T11:13:34.882Z,-34.7412
2017-12-22T11:14:40.404Z,-34.2445
2017-12-22T11:15:45.608Z,-33.5786
2017-12-22T11:16:51.121Z,-33.9908
2017-12-22T11:17:56.634Z,-34.4875
2017-12-22T11:19:02.485Z,-34.2445
2017-12-22T11:20:07.620Z,-33.827
2017-12-22T11:21:12.817Z,-34.2445
2017-12-22T11:22:18.341Z,-33.3302
2017-12-22T11:23:24.006Z,-33.3302
2017-12-22T11:24:29.827Z,-34.2445
2017-12-22T11:25:35.500Z,-32.7489
2017-12-22T11:26:40.993Z,-33.9908
2017-12-22T11:27:46.726Z,-33.7424
2017-12-22T11:28:51.971Z,-33.7424
2017-12-22T11:29:57.453Z,-33.9908
2017-12-22T11:31:02.623Z,-33.9908
2017-12-22T11:32:08.126Z,-34.4875
2017-12-22T11:33:13.326Z,-34.2445
2017-12-22T11:34:19.158Z,-35.1534
2017-12-22T11:35:24.662Z,-34.905
2017-12-22T11:36:30.643Z,-35.1534
2017-12-22T11:37:35.849Z,-36.316
2017-12-22T11:38:41.097Z,-35.5656
2017-12-22T11:39:46.912Z,-36.4799
2017-12-22T11:40:52.399Z,-36.1469
2017-12-22T11:41:57.859Z,-36.1469
2017-12-22T11:43:03.356Z,-35.8985
2017-12-22T11:44:08.850Z,-35.1534
2017-12-22T11:45:14.305Z,-34.4083
2017-12-22T11:46:20.297Z,-34.6567
2017-12-22T11:47:25.767Z,-34.4083
2017-12-22T11:48:31.387Z,-34.905
2017-12-22T11:49:36.587Z,-35.1534
2017-12-22T11:50:42.102Z,-34.1546
2017-12-22T11:51:47.838Z,-35.5656
2017-12-22T11:52:53.044Z,-35.3172
2017-12-22T11:53:58.518Z,-35.3172
2017-12-22T11:55:04.089Z,-35.5656
2017-12-22T11:56:09.464Z,-35.5656
2017-12-22T11:57:14.364Z,-35.5656
2017-12-22T11:58:20.092Z,-35.3172
2017-12-22T11:59:25.572Z,-35.7347
2017-12-22T12:00:31.380Z,-35.238
2017-12-22T12:01:36.879Z,-35.4863
2017-12-22T12:02:42.087Z,-35.9831
2017-12-22T12:03:47.987Z,-35.238
2017-12-22T12:04:53.103Z,-35.238
2017-12-22T12:05:58.019Z,-34.7412
2017-12-22T12:07:03.751Z,-35.238
2017-12-22T12:08:08.983Z,-34.4875
2017-12-22T12:09:14.226Z,-34.7412
2017-12-22T12:10:19.505Z,-34.2445
2017-12-22T12:11:25.021Z,-34.4875
2017-12-22T12:12:30.755Z,-33.9908
2017-12-22T12:13:36.534Z,-35.238
2017-12-22T12:14:42.019Z,-35.4863
2017-12-22T12:15:47.854Z,-35.238
2017-12-22T12:16:53.352Z,-34.9896
2017-12-22T12:17:58.823Z,-34.7412
2017-12-22T12:19:04.568Z,-35.1534
2017-12-22T12:20:10.060Z,-35.1534
2017-12-22T12:21:15.529Z,-34.2445
2017-12-22T12:22:21.178Z,-33.9908
2017-12-22T12:23:26.366Z,-33.7424
2017-12-22T12:24:32.099Z,-34.905
2017-12-22T12:25:37.598Z,-34.905
2017-12-22T12:26:42.812Z,-34.6567
2017-12-22T12:27:48.682Z,-35.1534
2017-12-22T12:28:53.882Z,-34.4083
2017-12-22T12:29:59.356Z,-34.905
2017-12-22T12:31:05.215Z,-34.3237
2017-12-22T12:32:10.662Z,-34.5721
2017-12-22T12:33:16.158Z,-34.3237
2017-12-22T12:34:21.888Z,-33.9062
2017-12-22T12:35:26.520Z,-34.5721
2017-12-22T12:36:32.117Z,-35.0689
2017-12-22T12:37:37.608Z,-34.8205
2017-12-22T12:38:43.106Z,-34.5721
2017-12-22T12:39:48.877Z,-34.0753
2017-12-22T12:40:54.338Z,-34.8205
2017-12-22T12:41:59.528Z,-34.0753
2017-12-22T12:43:05.444Z,-34.3237
2017-12-22T12:44:10.352Z,-34.8205
2017-12-22T12:45:15.834Z,-34.0753
2017-12-22T12:46:21.290Z,-34.5721
2017-12-22T12:47:26.784Z,-34.3237
2017-12-22T12:48:32.303Z,-34.0753
2017-12-22T12:49:37.811Z,-34.2445
2017-12-22T12:50:43.003Z,-33.7424
2017-12-22T12:51:49.043Z,-35.238
2017-12-22T12:52:53.970Z,-33.7424
2017-12-22T12:53:59.454Z,-33.9908
2017-12-22T12:55:05.180Z,-33.494
2017-12-22T12:56:10.670Z,-33.494
2017-12-22T12:57:16.154Z,-33.7424
2017-12-22T12:58:21.974Z,-33.7424
2017-12-22T12:59:27.180Z,-33.7424
2017-12-22T13:00:32.833Z,-33.494
2017-12-22T13:01:38.322Z,-32.5005
2017-12-22T13:02:43.833Z,-31.9985
2017-12-22T13:03:49.541Z,-33.2457
2017-12-22T13:04:54.962Z,-32.7489
2017-12-22T13:06:00.795Z,-31.8347
2017-12-22T13:07:06.624Z,-32.5005
2017-12-22T13:08:11.543Z,-31.8347
2017-12-22T13:09:17.017Z,-32.083
2017-12-22T13:10:22.490Z,-32.3314
2017-12-22T13:11:27.746Z,-32.083
2017-12-22T13:12:33.516Z,-32.5798
2017-12-22T13:13:39.168Z,-32.5798
2017-12-22T13:14:44.833Z,-32.083
2017-12-22T13:15:50.662Z,-32.3314
2017-12-22T13:16:56.140Z,-32.5798
2017-12-22T13:18:01.621Z,-31.5863
2017-12-22T13:19:07.338Z,-32.083
2017-12-22T13:20:11.709Z,-31.5863
2017-12-22T13:21:16.937Z,-31.5863
2017-12-22T13:22:22.833Z,-31.8347
2017-12-22T13:23:28.324Z,-32.083
2017-12-22T13:24:34.093Z,-31.8347
2017-12-22T13:25:39.287Z,-32.5005
2017-12-22T13:26:44.462Z,-32.5005
2017-12-22T13:27:50.290Z,-31.8347
2017-12-22T13:28:55.803Z,-31.5863
2017-12-22T13:30:00.989Z,-32.5798
2017-12-22T13:31:06.277Z,-32.5798
2017-12-22T13:32:11.704Z,-33.2457
2017-12-22T13:33:16.908Z,-32.5798
2017-12-22T13:34:22.666Z,-33.494
2017-12-22T13:35:27.868Z,-32.7489
2017-12-22T13:36:33.800Z,-33.9908
2017-12-22T13:37:38.991Z,-33.494
2017-12-22T13:38:44.478Z,-33.2457
2017-12-22T13:39:50.251Z,-33.2457
2017-12-22T13:40:55.489Z,-32.5798
2017-12-22T13:42:00.985Z,-32.9973
2017-12-22T13:43:06.538Z,-32.3314
2017-12-22T13:44:12.025Z,-32.7489
2017-12-22T13:45:17.237Z,-32.9973
2017-12-22T13:46:22.969Z,-32.9973
2017-12-22T13:47:28.486Z,-31.8347
2017-12-22T13:48:34.165Z,-32.5005
2017-12-22T13:49:39.558Z,-33.2457
2017-12-22T13:50:45.047Z,-32.9973
2017-12-22T13:51:50.220Z,-31.8347
2017-12-22T13:52:55.704Z,-33.494
2017-12-22T13:54:01.190Z,-33.2457
2017-12-22T13:55:06.943Z,-33.7424
2017-12-22T13:56:12.444Z,-34.2445
2017-12-22T13:57:17.640Z,-33.9908
2017-12-22T13:58:23.499Z,-33.2457
2017-12-22T13:59:28.982Z,-33.7424
2017-12-22T14:00:34.414Z,-34.905
2017-12-22T14:01:39.618Z,-33.2457
2017-12-22T14:02:44.539Z,-33.7424
2017-12-22T14:03:50.322Z,-33.9908
2017-12-22T14:04:55.802Z,-32.9973
2017-12-22T14:06:01.537Z,-33.7424
2017-12-22T14:07:06.511Z,-32.9973
2017-12-22T14:08:12.152Z,-32.5005
2017-12-22T14:09:17.349Z,-32.2469
2017-12-22T14:10:22.901Z,-32.9973
2017-12-22T14:11:28.619Z,-32.2469
2017-12-22T14:12:34.495Z,-32.5005
2017-12-22T14:13:39.975Z,-32.7489
2017-12-22T14:14:45.155Z,-32.9973
2017-12-22T14:15:50.890Z,-32.7489
2017-12-22T14:16:56.388Z,-32.2469
2017-12-22T14:18:01.870Z,-32.9973
2017-12-22T14:19:07.806Z,-33.2457
2017-12-22T14:20:13.274Z,-32.9973
2017-12-22T14:21:18.193Z,-32.5005
2017-12-22T14:22:23.649Z,-33.494
2017-12-22T14:23:29.130Z,-32.7489
2017-12-22T14:24:35.163Z,-33.494
2017-12-22T14:25:40.665Z,-32.5005
2017-12-22T14:26:46.134Z,-33.494
2017-12-22T14:27:51.862Z,-32.5005
2017-12-22T14:28:57.512Z,-32.2469
2017-12-22T14:30:03.040Z,-31.5017
2017-12-22T14:31:07.911Z,-32.2469
2017-12-22T14:32:13.426Z,-31.9985
2017-12-22T14:33:18.841Z,-32.2469
2017-12-22T14:34:24.012Z,-32.5005
2017-12-22T14:35:29.486Z,-32.7489
2017-12-22T14:36:35.426Z,-32.7489
2017-12-22T14:37:40.970Z,-32.2469
2017-12-22T14:38:46.442Z,-32.5005
2017-12-22T14:39:51.683Z,-33.1611
2017-12-22T14:40:57.167Z,-32.7489
2017-12-22T14:42:02.647Z,-33.1611
2017-12-22T14:43:07.804Z,-32.9127
2017-12-22T14:44:13.263Z,-33.1611
2017-12-22T14:45:18.749Z,-33.4095
2017-12-22T14:46:24.218Z,-33.6579
2017-12-22T14:47:29.149Z,-32.9973
2017-12-22T14:48:34.939Z,-32.9127
2017-12-22T14:49:40.116Z,-33.9062
2017-12-22T14:50:45.018Z,-33.6579
2017-12-22T14:51:50.852Z,-33.6579
2017-12-22T14:52:56.334Z,-33.1611
2017-12-22T14:54:01.541Z,-33.9062
2017-12-22T14:55:07.279Z,-32.7489
2017-12-22T14:56:12.569Z,-32.2469
2017-12-22T14:57:18.292Z,-34.1546
2017-12-22T14:58:23.158Z,-33.6579
2017-12-22T14:59:28.662Z,-33.4095
2017-12-22T15:00:34.198Z,-33.9062
2017-12-22T15:01:39.668Z,-33.4095
2017-12-22T15:02:45.172Z,-33.1611
2017-12-22T15:03:50.912Z,-33.6579
2017-12-22T15:04:56.372Z,-34.4083
2017-12-22T15:06:01.852Z,-34.4083
2017-12-22T15:07:07.622Z,-33.4095
2017-12-22T15:08:12.526Z,-33.9062
2017-12-22T15:09:18.423Z,-33.4095
2017-12-22T15:10:24.129Z,-33.9062
2017-12-22T15:11:29.599Z,-34.8205
2017-12-22T15:12:35.818Z,-34.1546
2017-12-22T15:13:41.041Z,-33.9062
2017-12-22T15:14:46.516Z,-34.4083
2017-12-22T15:15:51.982Z,-34.6567
2017-12-22T15:16:57.463Z,-33.4095
2017-12-22T15:18:02.964Z,-34.4083
2017-12-22T15:19:08.596Z,-35.0689
2017-12-22T15:20:13.793Z,-35.3172
2017-12-22T15:21:18.993Z,-35.5656
2017-12-22T15:22:24.718Z,-35.814
2017-12-22T15:23:30.217Z,-35.5656
2017-12-22T15:24:35.938Z,-34.5721
2017-12-22T15:25:41.409Z,-36.0677
2017-12-22T15:26:46.870Z,-35.0689
2017-12-22T15:27:52.610Z,-36.0677
2017-12-22T15:28:57.241Z,-35.0689
2017-12-22T15:30:02.757Z,-35.5656
2017-12-22T15:31:08.222Z,-35.814
2017-12-22T15:32:13.732Z,-35.0689
2017-12-22T15:33:19.197Z,-36.0677
2017-12-22T15:34:24.917Z,-35.5656
2017-12-22T15:35:30.385Z,-35.814
2017-12-22T15:36:35.821Z,-35.5656
2017-12-22T15:37:41.703Z,-36.0677
2017-12-22T15:38:47.509Z,-35.5656
2017-12-22T15:39:53.333Z,-36.5644
2017-12-22T15:40:58.816Z,-35.814
2017-12-22T15:42:04.305Z,-35.814
2017-12-22T15:43:10.063Z,-36.0677
2017-12-22T15:44:15.553Z,-36.5644
2017-12-22T15:45:21.046Z,-36.5644
2017-12-22T15:46:41.428Z,-37.4734
2017-12-22T15:47:46.919Z,-37.225
2017-12-22T15:48:52.667Z,-37.225
2017-12-22T15:49:57.888Z,-37.225
2017-12-22T15:51:03.371Z,-37.9754
2017-12-22T15:52:09.192Z,-37.4734
2017-12-22T15:53:14.810Z,-37.225
2017-12-22T15:54:20.273Z,-36.7282
2017-12-22T15:55:26.118Z,-37.225
2017-12-22T15:56:31.580Z,-37.9754
2017-12-22T15:57:37.625Z,-37.225
2017-12-22T15:58:42.504Z,-37.9754
2017-12-22T15:59:47.996Z,-38.2238
2017-12-22T16:00:53.855Z,-38.2238
2017-12-22T16:01:59.032Z,-37.9754
2017-12-22T16:03:04.528Z,-38.9689
2017-12-22T16:04:10.430Z,-38.7205
2017-12-22T16:05:15.729Z,-38.636
2017-12-22T16:06:21.371Z,-37.727
2017-12-22T16:07:27.529Z,-38.2238
2017-12-22T16:08:32.694Z,-38.1392
2017-12-22T16:09:38.237Z,-38.636
2017-12-22T16:10:43.844Z,-38.2238
2017-12-22T16:11:49.328Z,-38.1392
2017-12-22T16:12:55.067Z,-37.9754
2017-12-22T16:14:00.525Z,-38.8844
2017-12-22T16:15:06.034Z,-38.4722
2017-12-22T16:16:11.764Z,-38.636
2017-12-22T16:17:16.979Z,-38.7205
2017-12-22T16:18:22.473Z,-39.138
2017-12-22T16:19:27.957Z,-38.636
2017-12-22T16:20:33.416Z,-38.8844
2017-12-22T16:21:39.290Z,-39.138
2017-12-22T16:22:44.784Z,-39.138
2017-12-22T16:23:49.687Z,-39.8832
2017-12-22T16:24:54.930Z,-40.3799
2017-12-22T16:26:00.406Z,-39.138
2017-12-22T16:27:05.875Z,-39.8832
2017-12-22T16:28:11.776Z,-39.6348
2017-12-22T16:29:17.278Z,-40.6283
2017-12-22T16:30:22.558Z,-39.6348
2017-12-22T16:31:28.496Z,-40.8767
2017-12-22T16:32:33.967Z,-40.3799
2017-12-22T16:33:39.514Z,-40.6283
2017-12-22T16:34:44.751Z,-40.3799
2017-12-22T16:35:49.984Z,-40.3799
2017-12-22T16:36:55.502Z,-41.1251
2017-12-22T16:38:00.962Z,-39.8832
2017-12-22T16:39:06.445Z,-41.1251
2017-12-22T16:40:11.930Z,-39.6348
2017-12-22T16:41:17.620Z,-40.6283
2017-12-22T16:42:22.822Z,-40.3799
2017-12-22T16:43:28.570Z,-41.1251
2017-12-22T16:44:34.031Z,-40.6283
2017-12-22T16:45:39.516Z,-40.8767
2017-12-22T16:46:44.420Z,-41.7856
2017-12-22T16:47:49.899Z,-41.5373
2017-12-22T16:48:55.361Z,-42.0393
2017-12-22T16:50:00.852Z,-41.7856
2017-12-22T16:51:05.764Z,-42.2877
2017-12-22T16:52:10.928Z,-41.3734
2017-12-22T16:53:16.437Z,-41.5373
2017-12-22T16:54:21.948Z,-41.3734
2017-12-22T16:55:27.791Z,-40.8767
2017-12-22T16:56:33.611Z,-41.7856
2017-12-22T16:57:39.435Z,-41.3734
2017-12-22T16:58:44.906Z,-40.8767
2017-12-22T16:59:50.372Z,-40.2108
2017-12-22T17:00:56.118Z,-40.3799
2017-12-22T17:02:01.575Z,-40.3799
2017-12-22T17:03:07.049Z,-41.3734
2017-12-22T17:04:12.611Z,-40.8767
2017-12-22T17:05:17.532Z,-40.8767
2017-12-22T17:06:22.921Z,-41.5373
2017-12-22T17:07:28.652Z,-41.1251
2017-12-22T17:08:33.874Z,-40.8767
2017-12-22T17:09:39.527Z,-41.1251
2017-12-22T17:10:45.017Z,-40.4592
2017-12-22T17:11:50.518Z,-40.4592
2017-12-22T17:12:55.847Z,-41.1251
2017-12-22T17:14:01.018Z,-41.3734
2017-12-22T17:15:06.507Z,-40.8767
2017-12-22T17:16:12.100Z,-42.2877
2017-12-22T17:17:17.269Z,-41.7856
2017-12-22T17:18:22.469Z,-42.7844
2017-12-22T17:19:28.225Z,-41.3734
2017-12-22T17:20:33.698Z,-41.3734
2017-12-22T17:21:39.419Z,-40.9612
2017-12-22T17:22:44.929Z,-41.3734
2017-12-22T17:23:50.411Z,-41.1251
2017-12-22T17:24:55.879Z,-41.3734
2017-12-22T17:26:01.072Z,-40.9612
2017-12-22T17:27:06.560Z,-40.9612
2017-12-22T17:28:12.559Z,-41.3734
2017-12-22T17:29:17.751Z,-41.1251
2017-12-22T17:30:23.284Z,-41.3734
2017-12-22T17:31:29.459Z,-40.4592
2017-12-22T17:32:34.660Z,-41.3734
2017-12-22T17:33:39.824Z,-40.4592
2017-12-22T17:34:45.516Z,-40.9612
2017-12-22T17:35:50.970Z,-40.4592
2017-12-22T17:36:56.930Z,-40.9612
2017-12-22T17:38:02.122Z,-41.2096
2017-12-22T17:39:07.594Z,-41.3734
2017-12-22T17:40:13.425Z,-42.7844
2017-12-22T17:41:18.898Z,-41.7856
2017-12-22T17:42:39.407Z,-42.0393
2017-12-22T17:43:44.612Z,-42.5361
2017-12-22T17:44:50.104Z,-42.5361
2017-12-22T17:45:56.121Z,-42.2877
2017-12-22T17:47:01.345Z,-42.0393
2017-12-22T17:48:06.848Z,-42.7844
2017-12-22T17:49:12.330Z,-42.5361
2017-12-22T17:50:17.803Z,-42.5361
2017-12-22T17:51:23.276Z,-42.7844
2017-12-22T17:52:29.570Z,-43.2812
2017-12-22T17:53:35.039Z,-43.0328
2017-12-22T17:54:40.770Z,-43.2812
2017-12-22T17:55:46.268Z,-43.0328
2017-12-22T17:56:51.745Z,-42.7844
2017-12-22T17:57:57.626Z,-43.2812
2017-12-22T17:59:02.837Z,-43.2812
2017-12-22T18:00:07.741Z,-43.5296
2017-12-22T18:01:13.449Z,-43.2812
2017-12-22T18:02:18.909Z,-44.0263
2017-12-22T18:03:25.504Z,-43.2812
2017-12-22T18:04:30.979Z,-42.5361
2017-12-22T18:05:35.918Z,-43.2812
2017-12-22T18:06:41.512Z,-42.7844
2017-12-22T18:07:47.141Z,-43.5296
2017-12-22T18:08:52.634Z,-43.7779
2017-12-22T18:09:58.094Z,-42.7844
2017-12-22T18:11:03.592Z,-42.7844
2017-12-22T18:12:08.829Z,-43.2812
2017-12-22T18:13:14.562Z,-43.0328
2017-12-22T18:14:20.070Z,-42.7844
2017-12-22T18:15:26.444Z,-43.5296
2017-12-22T18:16:31.896Z,-43.7779
2017-12-22T18:17:37.092Z,-43.5296
2017-12-22T18:18:43.047Z,-43.5296
2017-12-22T18:19:48.532Z,-42.7844
2017-12-22T18:20:54.000Z,-42.5361
2017-12-22T18:21:59.868Z,-42.2877
2017-12-22T18:23:04.813Z,-42.2877
2017-12-22T18:24:10.011Z,-42.2877
2017-12-22T18:25:15.935Z,-42.5361
2017-12-22T18:26:21.408Z,-42.2877
2017-12-22T18:27:41.871Z,-41.3734
2017-12-22T18:28:47.348Z,-42.5361
2017-12-22T18:29:52.826Z,-42.5361
2017-12-22T18:30:58.646Z,-41.6218
2017-12-22T18:32:04.139Z,-42.0393
2017-12-22T18:33:09.666Z,-42.0393
2017-12-22T18:34:15.282Z,-41.7856
2017-12-22T18:35:20.467Z,-41.7856
2017-12-22T18:36:26.389Z,-41.7856
2017-12-22T18:37:31.570Z,-41.7856
2017-12-22T18:38:36.738Z,-42.1186
2017-12-22T18:39:42.504Z,-41.3734
2017-12-22T18:40:47.986Z,-42.2877
2017-12-22T18:41:53.453Z,-41.8702
2017-12-22T18:42:59.273Z,-42.7844
2017-12-22T18:44:04.214Z,-42.5361
2017-12-22T18:45:09.411Z,-42.2877
2017-12-22T18:46:14.966Z,-43.0328
2017-12-22T18:47:20.453Z,-43.5296
2017-12-22T18:48:27.133Z,-43.2812
2017-12-22T18:49:32.611Z,-43.2812
2017-12-22T18:50:37.529Z,-42.5361
2017-12-22T18:51:42.991Z,-43.5296
2017-12-22T18:52:48.231Z,-44.0263
2017-12-22T18:53:53.756Z,-44.0263
2017-12-22T18:54:59.500Z,-44.2747
2017-12-22T18:56:04.971Z,-44.5231
2017-12-22T18:57:10.164Z,-44.2747
2017-12-22T18:58:16.266Z,-44.5231
2017-12-22T18:59:21.959Z,-43.7779
2017-12-22T19:00:27.944Z,-44.5231
2017-12-22T19:01:33.452Z,-44.5231
2017-12-22T19:02:38.921Z,-44.2747
2017-12-22T19:03:44.565Z,-44.5231
2017-12-22T19:04:50.058Z,-45.1889
2017-12-22T19:05:55.546Z,-44.2747
2017-12-22T19:07:01.316Z,-44.5231
2017-12-22T19:08:06.518Z,-44.0263
2017-12-22T19:09:12.020Z,-44.5231
2017-12-22T19:10:17.576Z,-43.0328
2017-12-22T19:11:23.054Z,-43.7779
2017-12-22T19:12:29.058Z,-43.5296
2017-12-22T19:13:34.547Z,-43.5296
2017-12-22T19:14:39.448Z,-43.2812
2017-12-22T19:15:45.225Z,-44.7715
2017-12-22T19:16:50.720Z,-45.1889
2017-12-22T19:17:56.183Z,-44.5231
2017-12-22T19:19:01.644Z,-43.2812
2017-12-22T19:20:06.877Z,-43.5296
2017-12-22T19:21:12.134Z,-43.7779
2017-12-22T19:22:17.318Z,-44.7715
2017-12-22T19:23:22.821Z,-44.0263
2017-12-22T19:24:28.259Z,-44.2747
2017-12-22T19:25:33.720Z,-43.5296
2017-12-22T19:26:39.209Z,-44.7715
2017-12-22T19:27:45.293Z,-44.5231
2017-12-22T19:28:50.834Z,-44.0263
2017-12-22T19:29:55.469Z,-44.2747
2017-12-22T19:31:01.180Z,-44.5231
2017-12-22T19:32:06.665Z,-44.5231
2017-12-22T19:33:12.147Z,-44.0263
2017-12-22T19:34:17.585Z,-44.5231
2017-12-22T19:35:23.110Z,-44.5231
2017-12-22T19:36:28.980Z,-44.5231
2017-12-22T19:37:34.479Z,-44.5231
2017-12-22T19:38:39.959Z,-44.5231
2017-12-22T19:39:45.499Z,-44.5231
2017-12-22T19:40:50.990Z,-44.0263
2017-12-22T19:41:56.445Z,-43.7779
2017-12-22T19:43:02.332Z,-45.1889
2017-12-22T19:44:07.230Z,-45.8495
2017-12-22T19:45:11.851Z,-46.0979
2017-12-22T19:46:17.625Z,-46.0979
2017-12-22T19:47:23.083Z,-46.5947
2017-12-22T19:48:28.630Z,-46.3463
2017-12-22T19:49:34.132Z,-47.0914
2017-12-22T19:50:39.628Z,-46.5947
2017-12-22T19:51:45.575Z,-46.0979
2017-12-22T19:52:51.024Z,-46.3463
2017-12-22T19:53:56.214Z,-45.6011
2017-12-22T19:55:01.935Z,-45.6011
2017-12-22T19:56:07.160Z,-45.1889
2017-12-22T19:57:12.684Z,-44.5231
2017-12-22T19:58:18.408Z,-45.6011
2017-12-22T19:59:23.634Z,-45.3528
2017-12-22T20:00:28.848Z,-45.3528
2017-12-22T20:01:34.355Z,-45.3528
2017-12-22T20:02:39.858Z,-44.5231
2017-12-22T20:03:45.531Z,-44.2747
2017-12-22T20:04:51.106Z,-44.7715
2017-12-22T20:05:56.270Z,-44.0263
2017-12-22T20:07:02.002Z,-44.7715
2017-12-22T20:08:06.619Z,-44.5231
2017-12-22T20:09:12.115Z,-44.7715
2017-12-22T20:10:17.632Z,-45.3528
2017-12-22T20:11:22.816Z,-46.3463
2017-12-22T20:12:28.382Z,-46.5947